LUKK/KIV METAR and TAF weather

Enter ICAO airport designator
Station Type Date Time Source
LUKK METAR 2019/07/15 20:30 UTC NOAA

LUKK 152030Z 32003KT CAVOK 17/14 Q1010 R08/CLRD// NOSIG


Station Type Date Time Source
LUKK Decoded METAR 2019/07/15 20:30 UTC NOAA

Chisinau International Airport, Moldova (LUKK) 46-55-40N 028-55-51E
Jul 15, 2019 - 04:30 PM EDT / 2019.07.15 2030 UTC
Wind: from the NW (320 degrees) at 3 MPH (3 KT):0
Visibility: greater than 7 mile(s):0
Temperature: 62 F (17 C)
Dew Point: 57 F (14 C)
Relative Humidity: 82%
Pressure (altimeter): 29.83 in. Hg (1010 hPa)
ob: LUKK 152030Z 32003KT CAVOK 17/14 Q1010 R08/CLRD// NOSIG
cycle: 20

Station Type Date Time Source
LUKK TAF 2019/07/15 18:21 UTC NOAA

TAF TAF LUKK 151720Z 1518/1618 32006KT CAVOK

Example: see airport list